Bredene, Belgium
Current Conditions -  °F | °C
As of 1:20 PM on Thursday 18 Dec 2014 (Local Time) from EBOS Reporting Station
Broken Clouds Broken Clouds  
Wind Chill: 54°   Ceiling: 700
Heat Index: 54°   Visibility: 6mi
Dew Point: 52°   Wind: 29mph
Humidity: 94%   Direction: 250°WSW
Pressure: 29.85"   Gusts: 40mph
Location:  51.23°N, 2.98°E
Report Text: EBOS 181220Z 25025G35KT 9999 BKN007 BKN011 12/11 Q1011 TEMPO SCT007 BKN011
Loading
Personal Weather Stations






























Interactive Weather Map New forecast layout! Learn more

10-Day Weather Forecast

Advertisements
Track Severe Weather on mobile